Time;durP1;ratioP1;P1;durP2;ratioP2;P2;SDS_P1;SDS_P2;PMS_P1;PMS_P2;Temp;Humidity;BMP_temperature;BMP_pressure;BME280_temperature;BME280_humidity;BME280_pressure;Samples;Min_cycle;Max_cycle;Signal;HPM_P1;HPM_P2
2023/05/23 00:00:41;;;;;;;17.03;13.83;;;;;;;18.30;61.93;95958.09;5029226;28;20172;-69
2023/05/23 00:03:07;;;;;;;92.37;20.30;;;;;;;18.40;61.68;95953.72;5029277;28;20175;-69
2023/05/23 00:05:33;;;;;;;20.43;14.47;;;;;;;18.50;61.51;95958.28;5028934;28;20521;-69
2023/05/23 00:08:00;;;;;;;18.37;16.50;;;;;;;18.46;61.89;95951.53;5029268;28;20453;-70
2023/05/23 00:10:25;;;;;;;19.90;14.93;;;;;;;18.24;62.31;95949.81;5029083;28;20172;-69
2023/05/23 00:12:51;;;;;;;16.23;14.63;;;;;;;17.94;63.58;95952.16;5029167;28;20402;-69
2023/05/23 00:15:16;;;;;;;17.53;15.63;;;;;;;18.12;63.30;95955.13;5028656;28;20195;-69
2023/05/23 00:17:43;;;;;;;17.30;15.50;;;;;;;18.14;62.87;95962.97;5028984;28;20203;-69
2023/05/23 00:20:10;;;;;;;17.03;15.30;;;;;;;18.20;62.64;95965.13;5028863;28;20187;-69
2023/05/23 00:22:41;;;;;;;16.70;15.00;;;;;;;18.31;62.27;95954.47;5029019;28;20412;-69
2023/05/23 00:25:08;;;;;;;19.30;14.73;;;;;;;18.18;62.84;95962.59;5028402;28;20460;-69
2023/05/23 00:27:34;;;;;;;22.23;15.63;;;;;;;18.19;62.68;95969.59;5028646;28;20406;-69
2023/05/23 00:30:00;;;;;;;20.43;16.07;;;;;;;18.23;62.85;95964.88;5028863;28;20498;-68
2023/05/23 00:32:25;;;;;;;22.57;16.40;;;;;;;18.19;63.21;95966.94;5028853;28;20843;-69
2023/05/23 00:34:52;;;;;;;27.23;15.33;;;;;;;18.21;63.05;95964.16;5028278;28;20203;-69
2023/05/23 00:37:18;;;;;;;20.80;15.63;;;;;;;18.11;63.37;95972.03;5028752;28;20182;-68
2023/05/23 00:39:44;;;;;;;18.60;16.60;;;;;;;18.27;62.71;95963.66;5018685;28;20415;-68
2023/05/23 00:42:09;;;;;;;17.27;15.37;;;;;;;18.26;62.70;95959.34;5008654;28;20937;-69
2023/05/23 00:44:35;;;;;;;20.47;15.23;;;;;;;18.14;63.27;95971.81;5008433;28;20166;-69
2023/05/23 00:47:01;;;;;;;18.00;16.30;;;;;;;18.11;63.49;95968.53;5008414;28;20677;-70
2023/05/23 00:49:27;;;;;;;18.97;16.80;;;;;;;18.05;63.58;95963.72;5008746;28;20577;-70
2023/05/23 00:51:52;;;;;;;19.60;16.83;;;;;;;18.01;63.69;95970.25;5008654;28;20490;-68
2023/05/23 00:54:24;;;;;;;22.73;16.00;;;;;;;17.91;64.09;95968.34;5008222;28;20660;-69
2023/05/23 00:56:50;;;;;;;16.77;14.57;;;;;;;17.90;64.22;95969.28;5008425;28;20191;-69
2023/05/23 00:59:15;;;;;;;18.13;16.40;;;;;;;17.84;63.92;95975.09;5008593;28;20948;-69
2023/05/23 01:01:45;;;;;;;18.70;16.47;;;;;;;17.87;64.25;95977.50;5008487;28;20574;-69
2023/05/23 01:04:12;;;;;;;18.67;16.60;;;;;;;17.72;65.07;95986.66;5008087;28;20401;-69
2023/05/23 01:06:37;;;;;;;20.37;15.17;;;;;;;17.71;64.84;95977.00;5008358;28;20473;-69
2023/05/23 01:09:03;;;;;;;17.23;15.50;;;;;;;17.88;64.66;95979.22;5008253;28;20403;-70
2023/05/23 01:11:47;;;;;;;20.20;17.80;;;;;;;17.76;64.69;95983.66;5008376;28;20218;-69
2023/05/23 01:14:20;;;;;;;21.17;16.83;;;;;;;17.93;64.30;95978.84;5007809;28;20215;-70
2023/05/23 01:17:00;;;;;;;21.70;18.10;;;;;;;17.81;64.85;95979.78;5008205;28;21014;-70
2023/05/23 01:19:48;;;;;;;18.10;16.20;;;;;;;17.71;64.96;95988.44;5025126;28;20403;-70
2023/05/23 01:22:22;;;;;;;20.90;17.53;;;;;;;17.66;65.27;95985.31;5027753;28;20446;-71
2023/05/23 01:25:03;;;;;;;20.77;16.37;;;;;;;17.73;65.02;95991.84;5021619;28;20391;-70
2023/05/23 01:27:50;;;;;;;24.83;17.10;;;;;;;17.34;66.29;95990.50;5017911;28;20418;-70
2023/05/23 01:30:18;;;;;;;19.23;17.03;;;;;;;17.49;66.13;95991.13;5010758;28;20416;-69
2023/05/23 01:32:46;;;;;;;19.63;17.10;;;;;;;17.62;65.32;95983.03;5007838;28;20419;-69
2023/05/23 01:35:15;;;;;;;22.90;18.77;;;;;;;17.47;66.25;95982.44;5007412;28;20462;-69
2023/05/23 01:37:40;;;;;;;52.20;24.23;;;;;;;17.36;66.87;95983.25;5007151;28;20469;-68
2023/05/23 01:40:06;;;;;;;22.67;18.57;;;;;;;17.28;67.37;95985.66;5020326;28;20919;-70
2023/05/23 01:42:32;;;;;;;21.03;16.40;;;;;;;17.45;66.67;95987.84;5027257;28;20663;-68
2023/05/23 01:44:58;;;;;;;21.73;18.37;;;;;;;17.56;66.13;95990.50;5026989;28;20508;-68
2023/05/23 01:47:24;;;;;;;20.67;18.47;;;;;;;17.42;66.68;95989.91;5027366;28;20191;-69
2023/05/23 01:49:51;;;;;;;22.73;18.43;;;;;;;17.67;65.95;95995.00;5027321;28;20407;-68
2023/05/23 01:52:16;;;;;;;20.60;18.50;;;;;;;17.51;66.46;95991.84;5027276;28;20418;-69
2023/05/23 01:54:43;;;;;;;28.20;19.60;;;;;;;17.58;66.42;95993.06;5026486;28;20995;-69
2023/05/23 01:57:09;;;;;;;22.67;19.70;;;;;;;17.62;66.40;95996.28;5027122;28;20649;-67
2023/05/23 01:59:35;;;;;;;21.40;19.10;;;;;;;17.65;66.18;95991.59;5027140;28;20449;-68
2023/05/23 02:02:01;;;;;;;24.23;19.37;;;;;;;17.64;65.82;95992.56;5027069;28;20430;-69
2023/05/23 02:04:29;;;;;;;22.73;19.60;;;;;;;17.35;66.79;95993.03;5026588;28;20402;-68
2023/05/23 02:06:55;;;;;;;21.00;18.70;;;;;;;17.29;67.56;95987.34;5026862;28;20290;-69
2023/05/23 02:09:20;;;;;;;22.60;20.20;;;;;;;17.46;67.17;95994.84;5026803;28;20430;-69
2023/05/23 02:11:46;;;;;;;27.93;20.20;;;;;;;17.48;67.01;95992.06;5027053;28;20167;-70
2023/05/23 02:14:11;;;;;;;28.77;20.40;;;;;;;17.31;67.92;95996.03;5026402;28;20202;-69
2023/05/23 02:16:37;;;;;;;27.43;21.33;;;;;;;17.41;67.84;95994.38;5026685;28;20192;-69
2023/05/23 02:19:03;;;;;;;28.17;22.40;;;;;;;17.49;67.65;95994.63;5026983;28;20692;-69
2023/05/23 02:21:28;;;;;;;25.43;22.27;;;;;;;17.55;67.79;96002.09;5026878;28;20671;-69
2023/05/23 02:23:54;;;;;;;36.37;27.90;;;;;;;17.70;68.00;96009.81;5026281;28;20195;-69
2023/05/23 02:26:19;;;;;;;39.93;26.70;;;;;;;17.62;68.90;95997.13;5026374;28;20425;-69
2023/05/23 02:28:44;;;;;;;32.33;23.90;;;;;;;17.60;69.00;96003.53;5026489;28;20286;-69
2023/05/23 02:31:10;;;;;;;32.03;24.40;;;;;;;17.62;68.64;96004.25;5026572;28;20258;-70
2023/05/23 02:33:35;;;;;;;28.10;22.80;;;;;;;17.67;67.96;96002.09;5026489;28;20229;-69
2023/05/23 02:36:01;;;;;;;28.17;23.80;;;;;;;17.62;67.73;96014.88;5026679;28;20281;-69
2023/05/23 02:38:26;;;;;;;30.60;23.90;;;;;;;17.65;68.59;96017.31;5026589;28;20176;-69
2023/05/23 02:40:52;;;;;;;29.27;24.77;;;;;;;17.58;68.49;96013.44;5007536;28;20498;-70
2023/05/23 02:43:18;;;;;;;31.30;25.37;;;;;;;17.71;68.75;96008.84;5006653;28;20179;-69
2023/05/23 02:45:44;;;;;;;32.30;25.43;;;;;;;17.63;68.19;96012.09;5006528;28;20193;-69
2023/05/23 02:48:10;;;;;;;40.87;25.70;;;;;;;17.61;67.93;96013.19;5006714;28;20403;-69
2023/05/23 02:50:36;;;;;;;34.50;25.67;;;;;;;17.61;68.24;96018.50;5008449;28;20199;-71
2023/05/23 02:53:02;;;;;;;36.23;25.17;;;;;;;17.68;67.85;96019.72;5010588;28;20908;-69
2023/05/23 02:55:27;;;;;;;29.97;23.50;;;;;;;17.59;68.47;96020.44;5010267;28;20223;-69
2023/05/23 02:57:53;;;;;;;40.13;26.00;;;;;;;17.66;68.55;96021.63;5010685;28;20624;-69
2023/05/23 03:00:18;;;;;;;41.60;27.13;;;;;;;17.64;68.59;96021.75;5010680;28;20172;-69
2023/05/23 03:02:44;;;;;;;30.47;23.50;;;;;;;17.56;68.44;96027.66;5010578;28;20172;-69
2023/05/23 03:05:10;;;;;;;43.57;24.77;;;;;;;17.67;68.48;96021.53;5010185;28;21035;-68
2023/05/23 03:07:35;;;;;;;32.93;26.07;;;;;;;17.56;68.78;96017.03;5010454;28;20180;-68
2023/05/23 03:10:01;;;;;;;34.27;27.13;;;;;;;17.55;69.09;96006.53;5010477;28;20310;-69
2023/05/23 03:12:29;;;;;;;32.87;25.43;;;;;;;17.63;68.79;96005.97;5010450;28;20541;-69
2023/05/23 03:14:54;;;;;;;38.70;27.47;;;;;;;17.64;68.80;96007.63;5010379;28;20207;-68
2023/05/23 03:17:20;;;;;;;37.53;28.90;;;;;;;17.56;69.51;96003.78;5010662;28;20419;-69
2023/05/23 03:19:45;;;;;;;41.97;30.60;;;;;;;17.76;68.88;96006.66;5010807;28;20176;-70
2023/05/23 03:22:11;;;;;;;45.03;29.77;;;;;;;17.68;68.80;96009.09;5010241;28;20218;-68
2023/05/23 03:24:36;;;;;;;43.20;30.60;;;;;;;17.59;69.59;96013.31;5009697;28;20173;-69
2023/05/23 03:27:02;;;;;;;52.43;29.90;;;;;;;17.56;69.26;96014.38;5010194;28;20176;-69
2023/05/23 03:29:27;;;;;;;45.73;26.57;;;;;;;17.56;69.31;96013.56;5010060;28;20735;-69
2023/05/23 03:31:53;;;;;;;39.83;28.50;;;;;;;17.56;69.42;96006.44;5010063;28;20180;-68
2023/05/23 03:34:18;;;;;;;39.87;27.47;;;;;;;17.56;69.56;96006.44;5009714;28;20290;-69
2023/05/23 03:36:43;;;;;;;36.27;29.20;;;;;;;17.51;69.77;96011.25;5009877;28;20239;-69
2023/05/23 03:39:09;;;;;;;35.07;28.20;;;;;;;17.51;69.58;96008.59;5014851;28;20175;-68
2023/05/23 03:41:35;;;;;;;45.53;28.53;;;;;;;17.38;70.13;96009.66;5029742;28;20187;-69
2023/05/23 03:44:00;;;;;;;41.13;27.63;;;;;;;17.53;69.86;96006.69;5029206;28;20179;-69
2023/05/23 03:46:26;;;;;;;41.57;30.33;;;;;;;17.54;69.64;96008.34;5029073;28;20207;-69
2023/05/23 03:48:51;;;;;;;43.50;28.80;;;;;;;17.63;69.31;96008.63;5029648;28;20270;-69
2023/05/23 03:51:16;;;;;;;43.63;29.33;;;;;;;17.52;69.56;96012.09;5029547;28;20221;-69
2023/05/23 03:53:42;;;;;;;45.17;29.17;;;;;;;17.45;69.54;96013.53;5029056;28;20182;-69
2023/05/23 03:56:07;;;;;;;48.03;30.00;;;;;;;17.41;69.79;96014.72;5029158;28;20775;-69
2023/05/23 03:58:33;;;;;;;39.50;28.90;;;;;;;17.28;70.55;96015.69;5029543;28;20652;-69
2023/05/23 04:00:58;;;;;;;43.47;28.67;;;;;;;17.46;69.89;96020.53;5029189;28;20175;-70
2023/05/23 04:03:24;;;;;;;49.53;33.07;;;;;;;17.55;69.77;96020.69;5029082;28;20175;-70
2023/05/23 04:05:50;;;;;;;42.40;29.47;;;;;;;17.41;70.24;96020.91;5028916;28;20195;-69
2023/05/23 04:08:16;;;;;;;40.00;30.40;;;;;;;17.49;69.45;96015.84;5028970;28;20414;-69
2023/05/23 04:10:41;;;;;;;37.93;28.67;;;;;;;17.39;69.61;96012.22;5029048;28;20259;-69
2023/05/23 04:13:08;;;;;;;39.27;27.03;;;;;;;17.43;69.53;96029.56;5029018;28;20278;-70
2023/05/23 04:15:34;;;;;;;39.87;29.37;;;;;;;17.48;68.88;96021.25;5029071;28;20216;-69
2023/05/23 04:17:59;;;;;;;39.47;28.30;;;;;;;17.55;69.14;96031.28;5029349;28;20426;-69
2023/05/23 04:20:25;;;;;;;38.73;27.37;;;;;;;17.59;68.89;96026.56;5029176;28;20175;-69
2023/05/23 04:22:50;;;;;;;39.33;29.60;;;;;;;17.59;68.87;96037.19;5033018;28;20171;-70
2023/05/23 04:25:17;;;;;;;41.33;28.70;;;;;;;17.55;69.09;96041.03;5038289;28;20199;-68
2023/05/23 04:27:43;;;;;;;38.60;26.70;;;;;;;17.64;69.09;96045.63;5034783;28;20171;-69
2023/05/23 04:30:09;;;;;;;38.60;28.33;;;;;;;17.72;69.10;96039.75;5034263;28;20496;-70
2023/05/23 04:32:35;;;;;;;49.70;28.07;;;;;;;17.74;68.82;96045.75;5031229;28;20671;-69
2023/05/23 04:35:03;;;;;;;44.87;29.70;;;;;;;17.69;69.21;96051.44;5028677;28;20238;-69
2023/05/23 04:37:31;;;;;;;36.67;27.90;;;;;;;17.83;69.06;96050.38;5028752;28;20242;-69
2023/05/23 04:39:58;;;;;;;40.17;31.23;;;;;;;17.85;69.03;96044.94;5016930;28;20812;-69
2023/05/23 04:42:24;;;;;;;44.07;30.47;;;;;;;17.94;68.65;96046.88;5008772;28;20505;-70
2023/05/23 04:44:50;;;;;;;50.87;29.70;;;;;;;17.92;69.30;96051.47;5008054;28;20463;-70
2023/05/23 04:47:16;;;;;;;45.17;33.70;;;;;;;18.06;69.04;96050.38;5008591;28;20359;-70
2023/05/23 04:49:42;;;;;;;59.27;36.20;;;;;;;18.09;69.14;96050.97;5015465;28;20564;-70
2023/05/23 04:52:07;;;;;;;47.17;32.47;;;;;;;18.10;69.19;96049.19;5027825;28;20541;-69
2023/05/23 04:54:32;;;;;;;44.00;32.63;;;;;;;18.08;69.02;96057.25;5024962;28;20266;-71
2023/05/23 04:56:58;;;;;;;53.97;35.77;;;;;;;18.12;68.93;96057.88;5008212;28;20182;-68
2023/05/23 04:59:23;;;;;;;42.33;32.90;;;;;;;18.15;68.71;96060.28;5007436;28;20553;-68
2023/05/23 05:01:49;;;;;;;45.30;33.17;;;;;;;18.25;68.55;96061.22;5006686;28;20180;-69
2023/05/23 05:04:14;;;;;;;47.97;36.27;;;;;;;18.29;68.52;96059.19;5013620;28;20171;-69
2023/05/23 05:06:40;;;;;;;48.37;34.03;;;;;;;18.33;68.33;96063.25;5005350;28;20226;-70
2023/05/23 05:09:06;;;;;;;48.07;32.93;;;;;;;18.27;68.50;96059.28;5006173;28;20230;-70
2023/05/23 05:11:31;;;;;;;45.27;35.03;;;;;;;18.28;68.71;96060.97;5005740;28;20176;-69
2023/05/23 05:13:57;;;;;;;41.07;34.77;;;;;;;18.19;68.79;96059.06;5008406;28;20263;-69
2023/05/23 05:16:22;;;;;;;53.37;37.17;;;;;;;18.27;68.93;96061.94;5023858;28;20199;-69
2023/05/23 05:18:47;;;;;;;63.60;37.60;;;;;;;18.22;69.24;96066.78;5017269;28;20828;-70
2023/05/23 05:21:13;;;;;;;57.60;35.33;;;;;;;18.39;68.47;96062.78;5022838;28;20183;-68
2023/05/23 05:23:38;;;;;;;46.40;33.90;;;;;;;18.42;68.06;96065.16;5022150;28;20594;-71
2023/05/23 05:26:07;;;;;;;46.27;32.67;;;;;;;18.31;68.51;96066.06;5010550;28;20732;-69
2023/05/23 05:28:32;;;;;;;41.37;32.70;;;;;;;18.36;68.17;96069.19;5021780;28;20202;-70
2023/05/23 05:30:58;;;;;;;41.37;32.30;;;;;;;18.31;68.51;96065.22;5021925;28;20801;-70
2023/05/23 05:33:23;;;;;;;41.30;32.37;;;;;;;18.49;68.05;96068.19;5009727;28;20189;-71
2023/05/23 05:35:50;;;;;;;46.43;34.30;;;;;;;18.57;67.68;96065.75;5012195;28;20287;-71
2023/05/23 05:38:16;;;;;;;54.57;38.90;;;;;;;18.62;67.85;96074.19;5013396;28;20187;-69
2023/05/23 05:40:41;;;;;;;44.53;32.33;;;;;;;18.56;67.75;96072.88;5017487;28;20435;-70
2023/05/23 05:43:06;;;;;;;40.97;34.50;;;;;;;18.62;67.91;96074.19;5024196;28;20533;-70
2023/05/23 05:45:32;;;;;;;47.90;34.67;;;;;;;18.70;67.88;96081.53;5019422;28;20196;-70
2023/05/23 05:47:57;;;;;;;50.83;33.73;;;;;;;18.63;68.06;96087.34;5015189;28;20192;-70
2023/05/23 05:50:23;;;;;;;47.70;34.83;;;;;;;18.55;68.66;96094.28;5010801;28;20278;-69
2023/05/23 05:52:49;;;;;;;48.53;35.23;;;;;;;18.54;68.75;96092.56;5018842;28;20184;-70
2023/05/23 05:55:14;;;;;;;52.63;35.20;;;;;;;18.54;68.64;96096.09;5024523;28;20291;-70
2023/05/23 05:57:40;;;;;;;45.30;35.20;;;;;;;18.46;69.18;96095.00;5034916;28;20191;-71
2023/05/23 06:00:12;;;;;;;55.53;34.70;;;;;;;18.50;68.88;96097.31;5036436;28;20187;-70
2023/05/23 06:02:38;;;;;;;50.37;33.03;;;;;;;18.47;69.18;96105.50;5031565;28;20627;-70
2023/05/23 06:05:06;;;;;;;43.30;32.60;;;;;;;18.52;67.89;96099.81;5027815;28;20515;-71
2023/05/23 06:07:33;;;;;;;56.40;33.97;;;;;;;18.44;68.45;96104.91;5024082;28;20430;-70
2023/05/23 06:09:58;;;;;;;49.63;34.60;;;;;;;18.48;68.16;96101.03;5023634;28;20805;-68
2023/05/23 06:12:24;;;;;;;56.20;35.97;;;;;;;18.43;68.22;96111.22;5024045;28;20430;-69
2023/05/23 06:14:49;;;;;;;51.63;33.27;;;;;;;18.48;67.83;96114.34;5022913;28;20261;-71
2023/05/23 06:17:15;;;;;;;51.17;34.20;;;;;;;18.44;68.40;96108.41;5020532;28;20286;-69
2023/05/23 06:19:40;;;;;;;47.23;33.93;;;;;;;18.52;68.01;96116.63;5015098;28;20182;-69
2023/05/23 06:22:05;;;;;;;53.23;34.40;;;;;;;18.36;68.93;96113.50;5020518;28;20218;-70
2023/05/23 06:24:31;;;;;;;49.23;33.50;;;;;;;18.48;68.42;96120.47;5014514;28;20168;-70
2023/05/23 06:26:56;;;;;;;46.87;33.87;;;;;;;18.48;68.11;96119.66;5019603;28;20199;-69
2023/05/23 06:29:22;;;;;;;45.13;31.27;;;;;;;18.54;67.86;96125.31;5011550;28;20617;-70
2023/05/23 06:31:47;;;;;;;51.07;33.67;;;;;;;18.30;68.56;96125.44;5021451;28;20825;-70
2023/05/23 06:34:12;;;;;;;41.30;31.40;;;;;;;18.50;69.33;96131.84;5015086;28;20184;-70
2023/05/23 06:36:38;;;;;;;30.53;20.20;;;;;;;19.86;66.81;96114.41;5021791;28;20664;-70
2023/05/23 06:39:03;;;;;;;29.83;22.20;;;;;;;20.06;65.26;96115.38;5020310;28;20259;-70
2023/05/23 06:41:29;;;;;;;39.33;26.90;;;;;;;20.41;63.10;96116.78;5005176;28;20183;-69
2023/05/23 06:43:54;;;;;;;39.90;28.47;;;;;;;20.40;62.31;96123.09;5004963;28;20207;-69
2023/05/23 06:46:19;;;;;;;48.53;33.03;;;;;;;19.74;63.34;96115.47;5014439;28;20734;-68
2023/05/23 06:48:45;;;;;;;43.33;31.83;;;;;;;19.41;64.60;96121.78;5024651;28;20262;-69
2023/05/23 06:51:10;;;;;;;45.20;32.60;;;;;;;19.16;65.18;96126.50;5026611;28;20175;-69
2023/05/23 06:53:36;;;;;;;49.70;33.10;;;;;;;19.06;65.63;96122.91;5025921;28;20196;-68
2023/05/23 06:56:01;;;;;;;46.40;36.57;;;;;;;19.02;65.82;96129.47;5025567;28;20211;-69
2023/05/23 06:58:28;;;;;;;48.27;35.80;;;;;;;19.03;65.76;96125.81;5024791;28;20187;-69
2023/05/23 07:00:53;;;;;;;51.00;35.10;;;;;;;19.06;65.47;96133.53;5021099;28;20233;-70
2023/05/23 07:03:19;;;;;;;53.60;34.53;;;;;;;19.02;66.25;96129.47;5020680;28;20418;-70
2023/05/23 07:05:44;;;;;;;52.60;35.97;;;;;;;18.98;66.13;96128.03;5030229;28;20763;-70
2023/05/23 07:08:10;;;;;;;50.30;35.50;;;;;;;18.96;66.13;96127.28;5021858;28;20191;-69
2023/05/23 07:10:35;;;;;;;49.60;34.80;;;;;;;18.92;66.24;96131.16;5023645;28;20179;-71
2023/05/23 07:13:00;;;;;;;57.43;35.57;;;;;;;19.02;65.85;96130.31;5027426;28;20188;-70
2023/05/23 07:15:26;;;;;;;51.60;36.60;;;;;;;19.03;66.07;96125.81;5039456;28;20207;-68
2023/05/23 07:17:51;;;;;;;47.90;36.20;;;;;;;18.97;66.10;96135.16;5013329;28;20245;-69
2023/05/23 07:20:17;;;;;;;50.20;35.40;;;;;;;18.94;66.11;96131.91;5013057;28;20488;-70
2023/05/23 07:22:42;;;;;;;50.33;36.10;;;;;;;19.10;65.52;96132.31;5011604;28;20579;-70
2023/05/23 07:25:08;;;;;;;54.83;35.33;;;;;;;18.86;66.50;96132.53;5006171;28;20200;-70
2023/05/23 07:27:34;;;;;;;52.03;35.87;;;;;;;18.91;66.86;96135.66;5021949;28;20176;-68
2023/05/23 07:30:00;;;;;;;48.30;35.20;;;;;;;18.78;67.63;96130.50;5007034;28;20833;-69
2023/05/23 07:32:25;;;;;;;54.83;36.30;;;;;;;18.71;67.93;96141.69;5013256;28;20226;-68
2023/05/23 07:34:51;;;;;;;52.43;37.17;;;;;;;18.55;68.20;96140.28;5011347;28;20844;-68
2023/05/23 07:37:16;;;;;;;51.63;33.90;;;;;;;18.72;67.27;96133.59;5009153;28;20172;-68
2023/05/23 07:39:42;;;;;;;54.07;35.67;;;;;;;18.70;67.36;96132.88;5019365;28;20179;-69
2023/05/23 07:42:07;;;;;;;55.60;36.23;;;;;;;18.78;66.85;96137.59;5031139;28;20190;-69
2023/05/23 07:44:33;;;;;;;60.93;36.30;;;;;;;18.76;66.63;96137.75;5029410;28;20176;-69
2023/05/23 07:46:58;;;;;;;51.30;34.60;;;;;;;18.81;66.79;96140.88;5029488;28;20266;-69
2023/05/23 07:49:24;;;;;;;45.60;32.30;;;;;;;18.81;66.62;96138.22;5029907;28;20476;-69
2023/05/23 07:51:49;;;;;;;46.87;33.10;;;;;;;18.83;66.11;96138.94;5010572;28;20524;-68
2023/05/23 07:54:14;;;;;;;45.10;35.00;;;;;;;18.90;66.10;96135.75;5009099;28;20599;-70
2023/05/23 07:56:42;;;;;;;43.33;30.93;;;;;;;18.86;66.59;96144.97;5025256;28;20276;-68
2023/05/23 07:59:07;;;;;;;42.57;32.30;;;;;;;18.90;66.29;96146.41;5028987;28;20259;-69
2023/05/23 08:01:33;;;;;;;52.63;34.70;;;;;;;18.98;66.22;96138.66;5029130;28;20907;-68
2023/05/23 08:03:58;;;;;;;53.70;34.90;;;;;;;19.02;66.07;96140.94;5028996;28;20240;-69
2023/05/23 08:06:24;;;;;;;51.27;34.07;;;;;;;19.21;65.84;96150.06;5019900;28;20206;-68
2023/05/23 08:08:50;;;;;;;50.13;35.00;;;;;;;19.30;65.01;96141.34;5014235;28;20233;-68
2023/05/23 08:11:15;;;;;;;42.47;32.07;;;;;;;19.12;66.33;96135.72;5029027;28;20541;-69
2023/05/23 08:13:40;;;;;;;55.10;33.77;;;;;;;19.35;65.68;96141.78;5028307;28;20179;-69
2023/05/23 08:16:06;;;;;;;41.60;33.27;;;;;;;19.38;65.27;96144.19;5025578;28;20215;-69
2023/05/23 08:18:31;;;;;;;54.30;35.77;;;;;;;19.18;65.90;96153.84;5029486;28;20195;-69
2023/05/23 08:20:57;;;;;;;47.97;35.70;;;;;;;19.13;66.00;96148.03;5024236;28;20521;-68
2023/05/23 08:23:22;;;;;;;60.23;34.57;;;;;;;19.12;66.12;96156.16;5024439;28;20262;-67
2023/05/23 08:25:48;;;;;;;57.70;35.17;;;;;;;19.13;66.31;96148.03;5022252;28;20265;-68
2023/05/23 08:28:14;;;;;;;52.60;35.17;;;;;;;19.02;66.25;96148.09;5019228;28;20191;-68
2023/05/23 08:30:39;;;;;;;44.63;33.10;;;;;;;18.93;66.10;96156.81;5021093;28;20456;-70
2023/05/23 08:33:05;;;;;;;49.13;34.23;;;;;;;19.06;66.59;96162.78;5010328;28;20259;-68
2023/05/23 08:35:34;;;;;;;52.07;35.20;;;;;;;18.93;67.03;96162.13;5027582;28;20684;-69
2023/05/23 08:38:00;;;;;;;43.60;33.33;;;;;;;18.83;67.13;96162.88;5028031;28;20414;-68
2023/05/23 08:40:28;;;;;;;47.70;36.20;;;;;;;18.83;66.67;96170.84;5027886;28;20414;-69
2023/05/23 08:42:54;;;;;;;49.20;34.13;;;;;;;18.97;66.11;96169.72;5027773;28;20414;-69
2023/05/23 08:45:19;;;;;;;42.30;33.57;;;;;;;18.93;65.99;96168.28;5025565;28;20927;-70
2023/05/23 08:47:46;;;;;;;52.93;33.37;;;;;;;19.09;65.84;96167.06;5023977;28;20195;-70
2023/05/23 08:50:13;;;;;;;38.70;30.73;;;;;;;19.06;65.40;96169.94;5027152;28;20236;-70
2023/05/23 08:52:59;;;;;;;43.57;32.30;;;;;;;19.30;64.48;96173.25;5027781;28;20434;-69
2023/05/23 08:55:27;;;;;;;38.80;30.47;;;;;;;19.32;64.23;96167.78;5027274;28;20628;-69
2023/05/23 08:57:53;;;;;;;48.03;28.87;;;;;;;19.75;65.50;96161.56;5033927;28;20448;-69
2023/05/23 09:00:19;;;;;;;36.70;25.50;;;;;;;20.08;63.65;96169.38;5015983;28;20473;-69
2023/05/23 09:02:46;;;;;;;40.97;29.20;;;;;;;20.23;61.35;96169.84;5024278;28;20414;-68
2023/05/23 09:05:12;;;;;;;35.97;28.20;;;;;;;20.20;60.69;96170.13;5027777;28;20495;-73
2023/05/23 09:07:46;;;;;;;33.93;29.70;;;;;;;20.25;61.13;96167.06;5033346;28;20528;-69
2023/05/23 09:10:13;;;;;;;30.70;25.17;;;;;;;20.36;60.36;96169.63;5013903;28;20470;-69
2023/05/23 09:12:38;;;;;;;42.37;26.37;;;;;;;20.50;61.53;96171.97;5007995;28;20415;-71
2023/05/23 09:15:06;;;;;;;31.70;26.20;;;;;;;20.55;59.37;96174.22;5007397;28;20451;-70
2023/05/23 09:17:32;;;;;;;35.47;27.33;;;;;;;20.57;59.19;96171.44;5023514;28;20176;-66
2023/05/23 09:19:59;;;;;;;34.40;26.87;;;;;;;20.64;58.82;96172.59;5024840;28;20417;-70
2023/05/23 09:22:26;;;;;;;44.43;28.40;;;;;;;20.64;59.51;96172.59;5025228;28;20179;-71
2023/05/23 09:24:55;;;;;;;35.10;25.63;;;;;;;20.62;59.13;96177.22;5018732;28;20422;-70
2023/05/23 09:27:20;;;;;;;35.70;27.50;;;;;;;20.42;59.70;96182.44;5027162;28;20464;-69
2023/05/23 09:29:46;;;;;;;35.07;28.97;;;;;;;20.24;59.56;96176.88;5027271;28;20422;-70
2023/05/23 09:32:19;;;;;;;37.83;27.60;;;;;;;20.33;60.51;96175.22;5012048;28;20520;-69
2023/05/23 09:34:59;;;;;;;38.80;25.33;;;;;;;20.47;59.91;96176.69;5005803;28;20211;-70
2023/05/23 09:37:33;;;;;;;35.17;27.80;;;;;;;20.73;58.53;96158.44;5014363;28;20429;-70
2023/05/23 09:40:14;;;;;;;46.60;30.33;;;;;;;20.83;58.33;96164.63;5025929;28;20418;-70
2023/05/23 09:42:47;;;;;;;47.60;29.40;;;;;;;21.02;57.29;96161.16;5006949;28;20417;-70
2023/05/23 09:45:14;;;;;;;31.73;28.33;;;;;;;21.11;57.09;96155.00;5007308;28;20922;-69
2023/05/23 09:47:51;;;;;;;34.83;28.60;;;;;;;21.29;55.57;96157.00;5007845;28;20897;-69
2023/05/23 09:50:17;;;;;;;38.20;27.63;;;;;;;21.18;56.21;96157.13;5007529;28;20422;-68
2023/05/23 09:52:42;;;;;;;41.13;27.67;;;;;;;21.29;56.12;96165.03;5020940;28;20429;-69
2023/05/23 09:55:08;;;;;;;42.37;28.23;;;;;;;21.25;56.18;96159.09;5019063;28;20318;-71
2023/05/23 09:57:37;;;;;;;36.83;29.07;;;;;;;21.38;55.70;96160.66;5027437;28;20647;-70
2023/05/23 10:00:12;;;;;;;38.63;29.63;;;;;;;21.27;55.99;96146.47;5017373;28;20549;-70
2023/05/23 10:03:00;;;;;;;43.30;29.13;;;;;;;21.39;56.09;96149.00;5023205;28;20445;-69
2023/05/23 10:06:06;;;;;;;41.23;27.73;;;;;;;21.47;54.85;96151.84;5018776;28;21300;-70
2023/05/23 10:08:31;;;;;;;30.77;26.80;;;;;;;22.05;53.28;96140.25;4992329;28;20513;-70
2023/05/23 10:10:56;;;;;;;30.47;25.43;;;;;;;22.49;51.94;96140.53;5024151;28;20507;-71
2023/05/23 10:13:30;;;;;;;33.83;26.90;;;;;;;22.52;51.82;96143.78;5022410;28;20188;-71
2023/05/23 10:16:06;;;;;;;28.43;25.33;;;;;;;22.66;51.78;96139.75;5026665;28;20202;-70
2023/05/23 10:18:38;;;;;;;27.57;24.77;;;;;;;22.68;51.53;96135.13;5023186;28;20422;-70
2023/05/23 10:21:10;;;;;;;30.37;27.10;;;;;;;22.62;50.90;96147.22;5027023;28;20433;-72
2023/05/23 10:23:37;;;;;;;34.53;26.27;;;;;;;22.70;51.20;96135.81;5020686;28;20460;-72
2023/05/23 10:26:03;;;;;;;33.10;26.87;;;;;;;22.61;51.51;96140.22;5024690;28;20461;-71
2023/05/23 10:28:30;;;;;;;32.60;29.10;;;;;;;22.55;50.86;96135.44;5025531;28;20430;-72
2023/05/23 10:30:56;;;;;;;28.83;26.03;;;;;;;22.37;52.68;96143.41;5025501;28;20430;-71
2023/05/23 10:33:23;;;;;;;29.27;26.10;;;;;;;22.66;51.45;96136.25;5018810;28;20441;-69
2023/05/23 10:36:21;;;;;;;33.60;28.67;;;;;;;22.84;50.29;96126.41;5023182;28;20274;-69
2023/05/23 10:38:49;;;;;;;28.53;25.50;;;;;;;22.96;49.52;96141.28;5020762;28;20433;-70
2023/05/23 10:41:30;;;;;;;32.50;28.50;;;;;;;22.79;49.41;96137.56;5024098;28;20980;-69
2023/05/23 10:44:17;;;;;;;32.17;28.37;;;;;;;22.40;51.72;96153.81;5025871;28;20504;-70
2023/05/23 10:46:52;;;;;;;31.33;28.03;;;;;;;22.36;51.82;96148.91;5023954;28;20458;-70
2023/05/23 10:49:17;;;;;;;31.30;27.53;;;;;;;22.54;50.92;96152.50;5018389;28;20457;-70
2023/05/23 10:51:48;;;;;;;30.00;25.40;;;;;;;22.68;50.40;96150.28;5026375;28;20985;-70
2023/05/23 10:54:13;;;;;;;31.03;27.10;;;;;;;22.78;49.26;96151.09;5018860;28;20184;-69
2023/05/23 10:56:39;;;;;;;39.13;27.27;;;;;;;22.68;50.18;96144.94;5018438;28;20943;-70
2023/05/23 10:59:05;;;;;;;142.03;34.77;;;;;;;22.66;50.62;96147.78;5025593;28;20591;-70
2023/05/23 11:01:30;;;;;;;28.30;25.23;;;;;;;22.82;50.66;96141.81;5025143;28;20237;-68
2023/05/23 11:04:04;;;;;;;30.43;25.40;;;;;;;22.60;50.89;96146.53;5016837;28;20439;-69
2023/05/23 11:06:37;;;;;;;44.73;27.10;;;;;;;22.88;49.73;96145.69;5028498;28;20218;-70
2023/05/23 11:09:05;;;;;;;30.03;26.63;;;;;;;22.85;49.59;96151.34;5018221;28;20495;-69
2023/05/23 11:11:50;;;;;;;32.33;23.60;;;;;;;22.79;49.52;96152.78;5021891;28;20450;-70
2023/05/23 11:14:15;;;;;;;29.13;26.10;;;;;;;23.03;49.04;96158.47;5028375;28;20858;-70
2023/05/23 11:16:42;;;;;;;28.60;25.70;;;;;;;22.94;48.60;96155.81;5026410;28;20481;-71